Terminal Aerodrome Forecast
Issued by NWS

Home | Current Version | Previous Version | Text Only | Print | Product List | Glossary On
Versions: 1 2 3 4 5 6 7 8 9 10 11 12 13 14 15
972
FTUS42 KMHX 261121
TAFOAJ
TAF
KOAJ 261121Z 2612/2712 36003KT P6SM OVC070
     FM261600 04006KT P6SM SCT200
     FM270200 00000KT P6SM FEW150
     FM270800 VRB03KT 5SM BR SCT150
      AMD LTD TO CLD VIS AND WIND=

USA.gov is the U.S. government's official web portal to all federal, state and local government web resources and services.